sensor_id;sensor_type;location;lat;lon;timestamp;P1;durP1;ratioP1;P2;durP2;ratioP2
76103;SDS011;64831;44.870;37.336;2023-04-24T13:18:30;6.00;;;3.80;;
76103;SDS011;64831;44.870;37.336;2023-04-24T13:20:56;6.78;;;2.50;;
76103;SDS011;64831;44.870;37.336;2023-04-24T13:23:22;5.95;;;2.80;;
76103;SDS011;64831;44.870;37.336;2023-04-24T13:25:48;9.18;;;5.25;;
76103;SDS011;64831;44.870;37.336;2023-04-24T13:28:14;9.93;;;5.00;;
76103;SDS011;64831;44.870;37.336;2023-04-24T13:30:40;6.53;;;3.78;;
76103;SDS011;64831;44.870;37.336;2023-04-24T13:33:06;4.38;;;2.80;;
76103;SDS011;64831;44.870;37.336;2023-04-24T13:35:32;3.40;;;2.60;;
76103;SDS011;64831;44.870;37.336;2023-04-24T13:37:58;8.93;;;3.10;;
76103;SDS011;64831;44.870;37.336;2023-04-24T13:40:24;7.20;;;4.03;;
76103;SDS011;64831;44.870;37.336;2023-04-24T13:42:50;3.55;;;2.63;;
76103;SDS011;64831;44.870;37.336;2023-04-24T13:45:16;2.47;;;2.00;;
76103;SDS011;64831;44.870;37.336;2023-04-24T13:47:42;11.02;;;4.75;;
76103;SDS011;64831;44.870;37.336;2023-04-24T13:50:08;8.93;;;4.72;;
76103;SDS011;64831;44.870;37.336;2023-04-24T13:52:35;8.05;;;4.68;;
76103;SDS011;64831;44.870;37.336;2023-04-24T13:55:01;6.97;;;3.63;;
76103;SDS011;64831;44.870;37.336;2023-04-24T13:57:26;9.25;;;3.35;;
76103;SDS011;64831;44.870;37.336;2023-04-24T13:59:53;9.60;;;5.25;;
76103;SDS011;64831;44.870;37.336;2023-04-24T14:02:21;6.05;;;3.50;;
76103;SDS011;64831;44.870;37.336;2023-04-24T14:04:47;5.55;;;3.40;;
76103;SDS011;64831;44.870;37.336;2023-04-24T14:07:13;5.65;;;3.88;;
76103;SDS011;64831;44.870;37.336;2023-04-24T14:09:40;8.10;;;3.70;;
76103;SDS011;64831;44.870;37.336;2023-04-24T14:12:06;10.68;;;4.47;;
76103;SDS011;64831;44.870;37.336;2023-04-24T14:14:32;6.10;;;3.58;;
76103;SDS011;64831;44.870;37.336;2023-04-24T14:16:58;6.82;;;3.22;;
76103;SDS011;64831;44.870;37.336;2023-04-24T14:19:24;4.97;;;2.53;;
76103;SDS011;64831;44.870;37.336;2023-04-24T14:21:50;3.95;;;2.72;;
76103;SDS011;64831;44.870;37.336;2023-04-24T14:24:15;6.75;;;3.72;;
76103;SDS011;64831;44.870;37.336;2023-04-24T14:26:41;6.25;;;1.95;;
76103;SDS011;64831;44.870;37.336;2023-04-24T14:29:07;3.50;;;2.33;;
76103;SDS011;64831;44.870;37.336;2023-04-24T14:31:33;7.90;;;4.18;;
76103;SDS011;64831;44.870;37.336;2023-04-24T14:33:59;6.05;;;3.22;;
76103;SDS011;64831;44.870;37.336;2023-04-24T14:36:25;10.00;;;4.20;;
76103;SDS011;64831;44.870;37.336;2023-04-24T14:38:51;9.43;;;4.93;;
76103;SDS011;64831;44.870;37.336;2023-04-24T14:41:17;7.28;;;4.05;;
76103;SDS011;64831;44.870;37.336;2023-04-24T14:43:43;13.18;;;4.38;;
76103;SDS011;64831;44.870;37.336;2023-04-24T14:46:09;6.57;;;3.83;;
76103;SDS011;64831;44.870;37.336;2023-04-24T14:48:35;9.35;;;4.53;;
76103;SDS011;64831;44.870;37.336;2023-04-24T14:51:00;6.38;;;3.45;;
76103;SDS011;64831;44.870;37.336;2023-04-24T14:53:26;25.38;;;9.80;;
76103;SDS011;64831;44.870;37.336;2023-04-24T14:55:53;13.35;;;6.28;;
76103;SDS011;64831;44.870;37.336;2023-04-24T14:58:19;8.00;;;2.22;;
76103;SDS011;64831;44.870;37.336;2023-04-24T15:00:45;9.60;;;5.25;;
76103;SDS011;64831;44.870;37.336;2023-04-24T15:03:11;7.70;;;3.95;;
76103;SDS011;64831;44.870;37.336;2023-04-24T15:05:36;9.65;;;4.10;;
76103;SDS011;64831;44.870;37.336;2023-04-24T15:08:02;10.40;;;4.97;;
76103;SDS011;64831;44.870;37.336;2023-04-24T15:10:29;8.32;;;4.63;;
76103;SDS011;64831;44.870;37.336;2023-04-24T15:12:55;11.38;;;4.68;;
76103;SDS011;64831;44.870;37.336;2023-04-24T15:15:21;15.23;;;6.00;;
76103;SDS011;64831;44.870;37.336;2023-04-24T15:17:46;6.18;;;3.90;;
76103;SDS011;64831;44.870;37.336;2023-04-24T15:20:12;11.90;;;5.72;;
76103;SDS011;64831;44.870;37.336;2023-04-24T15:22:38;5.05;;;2.85;;
76103;SDS011;64831;44.870;37.336;2023-04-24T15:25:05;11.88;;;5.07;;
76103;SDS011;64831;44.870;37.336;2023-04-24T15:27:52;6.65;;;3.80;;
76103;SDS011;64831;44.870;37.336;2023-04-24T15:30:17;11.82;;;5.00;;
76103;SDS011;64831;44.870;37.336;2023-04-24T15:32:44;2.42;;;1.48;;
76103;SDS011;64831;44.870;37.336;2023-04-24T15:35:10;11.40;;;4.68;;
76103;SDS011;64831;44.870;37.336;2023-04-24T15:37:36;3.65;;;1.75;;
76103;SDS011;64831;44.870;37.336;2023-04-24T15:40:03;10.90;;;3.88;;
76103;SDS011;64831;44.870;37.336;2023-04-24T15:42:32;11.85;;;5.18;;
76103;SDS011;64831;44.870;37.336;2023-04-24T15:44:58;4.93;;;2.72;;
76103;SDS011;64831;44.870;37.336;2023-04-24T15:47:24;11.82;;;3.30;;
76103;SDS011;64831;44.870;37.336;2023-04-24T15:49:51;6.57;;;3.45;;
76103;SDS011;64831;44.870;37.336;2023-04-24T15:52:18;10.73;;;4.97;;
76103;SDS011;64831;44.870;37.336;2023-04-24T15:54:43;17.38;;;8.10;;
76103;SDS011;64831;44.870;37.336;2023-04-24T15:57:09;14.35;;;5.85;;
76103;SDS011;64831;44.870;37.336;2023-04-24T15:59:37;14.23;;;7.10;;
76103;SDS011;64831;44.870;37.336;2023-04-24T16:02:04;19.40;;;7.90;;
76103;SDS011;64831;44.870;37.336;2023-04-24T16:04:30;17.58;;;7.47;;
76103;SDS011;64831;44.870;37.336;2023-04-24T16:06:59;12.43;;;4.80;;
76103;SDS011;64831;44.870;37.336;2023-04-24T16:09:25;7.50;;;4.15;;
76103;SDS011;64831;44.870;37.336;2023-04-24T16:11:51;19.80;;;7.47;;
76103;SDS011;64831;44.870;37.336;2023-04-24T16:14:17;17.77;;;7.70;;
76103;SDS011;64831;44.870;37.336;2023-04-24T16:16:43;19.13;;;8.35;;
76103;SDS011;64831;44.870;37.336;2023-04-24T16:19:08;18.75;;;8.13;;
76103;SDS011;64831;44.870;37.336;2023-04-24T16:21:35;19.00;;;8.85;;
76103;SDS011;64831;44.870;37.336;2023-04-24T16:24:01;23.40;;;8.98;;
76103;SDS011;64831;44.870;37.336;2023-04-24T16:26:27;19.67;;;8.63;;
76103;SDS011;64831;44.870;37.336;2023-04-24T16:28:52;19.52;;;8.88;;
76103;SDS011;64831;44.870;37.336;2023-04-24T16:31:20;15.57;;;7.95;;
76103;SDS011;64831;44.870;37.336;2023-04-24T16:33:45;19.42;;;7.72;;
76103;SDS011;64831;44.870;37.336;2023-04-24T16:36:11;21.40;;;8.07;;
76103;SDS011;64831;44.870;37.336;2023-04-24T16:38:37;16.48;;;7.40;;
76103;SDS011;64831;44.870;37.336;2023-04-24T16:41:03;17.65;;;7.82;;
76103;SDS011;64831;44.870;37.336;2023-04-24T16:43:29;11.85;;;5.18;;
76103;SDS011;64831;44.870;37.336;2023-04-24T16:45:56;13.63;;;6.63;;
76103;SDS011;64831;44.870;37.336;2023-04-24T16:48:22;15.00;;;7.47;;
76103;SDS011;64831;44.870;37.336;2023-04-24T16:50:48;14.35;;;6.47;;
76103;SDS011;64831;44.870;37.336;2023-04-24T16:53:13;10.60;;;5.00;;
76103;SDS011;64831;44.870;37.336;2023-04-24T16:55:39;9.02;;;3.47;;
76103;SDS011;64831;44.870;37.336;2023-04-24T16:58:05;13.85;;;6.47;;
76103;SDS011;64831;44.870;37.336;2023-04-24T17:00:31;21.17;;;8.27;;
76103;SDS011;64831;44.870;37.336;2023-04-24T17:02:57;13.43;;;5.70;;
76103;SDS011;64831;44.870;37.336;2023-04-24T17:05:23;4.93;;;2.92;;
76103;SDS011;64831;44.870;37.336;2023-04-24T17:07:49;13.90;;;7.45;;
76103;SDS011;64831;44.870;37.336;2023-04-24T17:10:15;9.00;;;5.18;;
76103;SDS011;64831;44.870;37.336;2023-04-24T17:12:42;15.05;;;7.45;;
76103;SDS011;64831;44.870;37.336;2023-04-24T17:15:08;15.40;;;7.43;;
76103;SDS011;64831;44.870;37.336;2023-04-24T17:17:34;19.70;;;7.55;;
76103;SDS011;64831;44.870;37.336;2023-04-24T17:20:00;17.73;;;7.63;;
76103;SDS011;64831;44.870;37.336;2023-04-24T17:22:26;20.58;;;7.90;;
76103;SDS011;64831;44.870;37.336;2023-04-24T17:24:53;16.30;;;8.27;;
76103;SDS011;64831;44.870;37.336;2023-04-24T17:27:20;14.00;;;7.20;;
76103;SDS011;64831;44.870;37.336;2023-04-24T17:29:46;11.43;;;6.03;;
76103;SDS011;64831;44.870;37.336;2023-04-24T17:32:14;15.57;;;6.50;;
76103;SDS011;64831;44.870;37.336;2023-04-24T17:34:39;20.92;;;7.57;;
76103;SDS011;64831;44.870;37.336;2023-04-24T17:37:05;10.07;;;4.95;;
76103;SDS011;64831;44.870;37.336;2023-04-24T17:39:31;10.85;;;4.95;;
76103;SDS011;64831;44.870;37.336;2023-04-24T17:41:57;8.48;;;4.70;;
76103;SDS011;64831;44.870;37.336;2023-04-24T17:44:23;15.57;;;6.00;;
76103;SDS011;64831;44.870;37.336;2023-04-24T17:46:49;5.68;;;3.05;;
76103;SDS011;64831;44.870;37.336;2023-04-24T17:49:15;8.13;;;4.20;;
76103;SDS011;64831;44.870;37.336;2023-04-24T17:51:41;9.20;;;4.53;;
76103;SDS011;64831;44.870;37.336;2023-04-24T17:54:08;7.50;;;3.50;;
76103;SDS011;64831;44.870;37.336;2023-04-24T17:56:35;10.10;;;5.28;;
76103;SDS011;64831;44.870;37.336;2023-04-24T17:59:01;8.45;;;4.28;;
76103;SDS011;64831;44.870;37.336;2023-04-24T18:01:27;11.85;;;5.38;;
76103;SDS011;64831;44.870;37.336;2023-04-24T18:03:53;10.15;;;4.13;;
76103;SDS011;64831;44.870;37.336;2023-04-24T18:06:21;9.90;;;5.15;;
76103;SDS011;64831;44.870;37.336;2023-04-24T18:08:47;13.48;;;5.65;;
76103;SDS011;64831;44.870;37.336;2023-04-24T18:11:13;12.77;;;5.93;;
76103;SDS011;64831;44.870;37.336;2023-04-24T18:13:39;14.93;;;6.97;;
76103;SDS011;64831;44.870;37.336;2023-04-24T18:16:06;13.82;;;7.10;;
76103;SDS011;64831;44.870;37.336;2023-04-24T18:18:32;7.82;;;3.90;;
76103;SDS011;64831;44.870;37.336;2023-04-24T18:20:58;12.23;;;6.15;;
76103;SDS011;64831;44.870;37.336;2023-04-24T18:23:24;18.02;;;5.43;;
76103;SDS011;64831;44.870;37.336;2023-04-24T18:25:50;17.67;;;5.50;;
76103;SDS011;64831;44.870;37.336;2023-04-24T18:28:18;14.23;;;5.20;;
76103;SDS011;64831;44.870;37.336;2023-04-24T18:33:13;6.97;;;3.30;;
76103;SDS011;64831;44.870;37.336;2023-04-24T18:35:39;7.20;;;4.18;;
76103;SDS011;64831;44.870;37.336;2023-04-24T18:38:05;10.20;;;2.88;;
76103;SDS011;64831;44.870;37.336;2023-04-24T18:40:31;4.90;;;3.13;;
76103;SDS011;64831;44.870;37.336;2023-04-24T18:42:57;10.18;;;4.30;;
76103;SDS011;64831;44.870;37.336;2023-04-24T18:45:23;11.52;;;5.10;;
76103;SDS011;64831;44.870;37.336;2023-04-24T18:47:50;10.57;;;4.03;;
76103;SDS011;64831;44.870;37.336;2023-04-24T18:50:16;14.48;;;4.95;;
76103;SDS011;64831;44.870;37.336;2023-04-24T18:52:44;11.55;;;5.13;;
76103;SDS011;64831;44.870;37.336;2023-04-24T18:55:09;9.48;;;4.43;;
76103;SDS011;64831;44.870;37.336;2023-04-24T18:57:35;3.15;;;2.15;;
76103;SDS011;64831;44.870;37.336;2023-04-24T19:00:02;7.75;;;2.55;;
76103;SDS011;64831;44.870;37.336;2023-04-24T19:02:28;5.43;;;2.42;;
76103;SDS011;64831;44.870;37.336;2023-04-24T19:04:56;7.25;;;3.65;;
76103;SDS011;64831;44.870;37.336;2023-04-24T19:07:22;4.68;;;2.85;;
76103;SDS011;64831;44.870;37.336;2023-04-24T19:09:48;6.85;;;2.97;;
76103;SDS011;64831;44.870;37.336;2023-04-24T19:12:14;10.93;;;3.33;;
76103;SDS011;64831;44.870;37.336;2023-04-24T19:14:40;7.18;;;3.15;;
76103;SDS011;64831;44.870;37.336;2023-04-24T19:17:06;6.63;;;3.67;;
76103;SDS011;64831;44.870;37.336;2023-04-24T19:19:34;5.68;;;3.38;;
76103;SDS011;64831;44.870;37.336;2023-04-24T19:22:00;4.57;;;1.45;;
76103;SDS011;64831;44.870;37.336;2023-04-24T19:24:26;8.15;;;2.95;;
76103;SDS011;64831;44.870;37.336;2023-04-24T19:26:57;5.70;;;3.20;;
76103;SDS011;64831;44.870;37.336;2023-04-24T19:29:23;10.02;;;3.63;;
76103;SDS011;64831;44.870;37.336;2023-04-24T19:31:49;12.25;;;3.30;;
76103;SDS011;64831;44.870;37.336;2023-04-24T19:34:17;6.45;;;3.35;;
76103;SDS011;64831;44.870;37.336;2023-04-24T19:36:42;9.10;;;3.95;;
76103;SDS011;64831;44.870;37.336;2023-04-24T19:39:08;5.28;;;2.20;;
76103;SDS011;64831;44.870;37.336;2023-04-24T19:41:34;3.40;;;2.53;;
76103;SDS011;64831;44.870;37.336;2023-04-24T19:44:01;5.03;;;2.55;;
76103;SDS011;64831;44.870;37.336;2023-04-24T19:46:27;9.07;;;2.25;;
76103;SDS011;64831;44.870;37.336;2023-04-24T19:48:53;5.57;;;2.00;;
76103;SDS011;64831;44.870;37.336;2023-04-24T19:51:19;7.90;;;2.95;;
76103;SDS011;64831;44.870;37.336;2023-04-24T19:53:45;4.10;;;1.80;;
76103;SDS011;64831;44.870;37.336;2023-04-24T19:56:11;3.38;;;2.15;;
76103;SDS011;64831;44.870;37.336;2023-04-24T19:58:37;2.80;;;1.50;;
76103;SDS011;64831;44.870;37.336;2023-04-24T20:01:03;1.48;;;0.95;;
76103;SDS011;64831;44.870;37.336;2023-04-24T20:03:30;7.38;;;2.72;;
76103;SDS011;64831;44.870;37.336;2023-04-24T20:05:56;3.75;;;1.58;;
76103;SDS011;64831;44.870;37.336;2023-04-24T20:08:22;3.92;;;1.85;;
76103;SDS011;64831;44.870;37.336;2023-04-24T20:10:48;1.73;;;1.10;;
76103;SDS011;64831;44.870;37.336;2023-04-24T20:13:13;6.55;;;2.50;;
76103;SDS011;64831;44.870;37.336;2023-04-24T20:15:39;2.20;;;1.73;;
76103;SDS011;64831;44.870;37.336;2023-04-24T20:18:06;3.33;;;1.88;;
76103;SDS011;64831;44.870;37.336;2023-04-24T20:20:32;0.85;;;0.85;;
76103;SDS011;64831;44.870;37.336;2023-04-24T20:22:59;5.57;;;2.33;;
76103;SDS011;64831;44.870;37.336;2023-04-24T20:25:25;8.18;;;3.30;;
76103;SDS011;64831;44.870;37.336;2023-04-24T20:27:50;9.90;;;3.22;;
76103;SDS011;64831;44.870;37.336;2023-04-24T20:30:16;6.38;;;3.47;;
76103;SDS011;64831;44.870;37.336;2023-04-24T20:32:42;5.50;;;3.38;;
76103;SDS011;64831;44.870;37.336;2023-04-24T20:35:09;5.95;;;2.42;;
76103;SDS011;64831;44.870;37.336;2023-04-24T20:37:36;5.32;;;2.38;;
76103;SDS011;64831;44.870;37.336;2023-04-24T20:40:02;5.88;;;3.47;;
76103;SDS011;64831;44.870;37.336;2023-04-24T20:45:01;8.18;;;3.88;;
76103;SDS011;64831;44.870;37.336;2023-04-24T20:47:27;5.93;;;2.05;;
76103;SDS011;64831;44.870;37.336;2023-04-24T20:49:53;2.13;;;1.70;;
76103;SDS011;64831;44.870;37.336;2023-04-24T20:52:19;3.95;;;2.33;;
76103;SDS011;64831;44.870;37.336;2023-04-24T20:54:45;8.40;;;4.15;;
76103;SDS011;64831;44.870;37.336;2023-04-24T20:57:12;10.00;;;3.85;;
76103;SDS011;64831;44.870;37.336;2023-04-24T20:59:39;13.75;;;4.03;;
76103;SDS011;64831;44.870;37.336;2023-04-24T21:02:05;5.93;;;3.25;;
76103;SDS011;64831;44.870;37.336;2023-04-24T21:04:31;6.70;;;3.30;;
76103;SDS011;64831;44.870;37.336;2023-04-24T21:09:27;8.00;;;3.97;;
76103;SDS011;64831;44.870;37.336;2023-04-24T21:11:53;12.70;;;4.43;;
76103;SDS011;64831;44.870;37.336;2023-04-24T21:14:19;7.88;;;3.78;;
76103;SDS011;64831;44.870;37.336;2023-04-24T21:16:44;9.32;;;3.90;;
76103;SDS011;64831;44.870;37.336;2023-04-24T21:19:11;15.05;;;4.10;;
76103;SDS011;64831;44.870;37.336;2023-04-24T21:21:37;9.95;;;3.05;;
76103;SDS011;64831;44.870;37.336;2023-04-24T21:24:03;4.68;;;2.67;;
76103;SDS011;64831;44.870;37.336;2023-04-24T21:26:29;11.68;;;3.35;;
76103;SDS011;64831;44.870;37.336;2023-04-24T21:28:55;8.43;;;3.05;;
76103;SDS011;64831;44.870;37.336;2023-04-24T21:31:21;8.02;;;3.33;;
76103;SDS011;64831;44.870;37.336;2023-04-24T21:33:47;9.23;;;3.90;;
76103;SDS011;64831;44.870;37.336;2023-04-24T21:36:13;3.92;;;2.40;;
76103;SDS011;64831;44.870;37.336;2023-04-24T21:38:38;5.07;;;3.40;;
76103;SDS011;64831;44.870;37.336;2023-04-24T21:41:05;6.35;;;3.83;;
76103;SDS011;64831;44.870;37.336;2023-04-24T21:43:30;3.35;;;2.05;;
76103;SDS011;64831;44.870;37.336;2023-04-24T21:45:56;8.07;;;3.15;;
76103;SDS011;64831;44.870;37.336;2023-04-24T21:48:22;7.10;;;4.07;;
76103;SDS011;64831;44.870;37.336;2023-04-24T21:50:48;10.20;;;3.45;;
76103;SDS011;64831;44.870;37.336;2023-04-24T21:53:15;8.43;;;4.30;;
76103;SDS011;64831;44.870;37.336;2023-04-24T21:55:41;7.40;;;3.35;;
76103;SDS011;64831;44.870;37.336;2023-04-24T21:58:07;9.68;;;4.30;;
76103;SDS011;64831;44.870;37.336;2023-04-24T22:00:33;6.78;;;1.95;;
76103;SDS011;64831;44.870;37.336;2023-04-24T22:02:58;5.95;;;2.55;;
76103;SDS011;64831;44.870;37.336;2023-04-24T22:05:24;4.50;;;2.58;;
76103;SDS011;64831;44.870;37.336;2023-04-24T22:07:51;10.25;;;3.47;;
76103;SDS011;64831;44.870;37.336;2023-04-24T22:10:18;8.25;;;3.75;;
76103;SDS011;64831;44.870;37.336;2023-04-24T22:12:44;6.25;;;2.88;;
76103;SDS011;64831;44.870;37.336;2023-04-24T22:15:10;4.07;;;2.53;;
76103;SDS011;64831;44.870;37.336;2023-04-24T22:17:36;12.50;;;4.65;;
76103;SDS011;64831;44.870;37.336;2023-04-24T22:20:03;6.60;;;3.58;;
76103;SDS011;64831;44.870;37.336;2023-04-24T22:22:31;10.90;;;4.20;;
76103;SDS011;64831;44.870;37.336;2023-04-24T22:24:58;6.05;;;2.28;;
76103;SDS011;64831;44.870;37.336;2023-04-24T22:27:24;11.35;;;2.97;;
76103;SDS011;64831;44.870;37.336;2023-04-24T22:29:50;8.75;;;3.53;;
76103;SDS011;64831;44.870;37.336;2023-04-24T22:32:16;9.65;;;4.10;;
76103;SDS011;64831;44.870;37.336;2023-04-24T22:34:42;9.15;;;3.75;;
76103;SDS011;64831;44.870;37.336;2023-04-24T22:37:09;5.03;;;2.70;;
76103;SDS011;64831;44.870;37.336;2023-04-24T22:39:34;9.30;;;2.30;;
76103;SDS011;64831;44.870;37.336;2023-04-24T22:42:00;3.40;;;1.98;;
76103;SDS011;64831;44.870;37.336;2023-04-24T22:44:26;13.73;;;2.08;;
76103;SDS011;64831;44.870;37.336;2023-04-24T22:46:52;8.07;;;2.53;;
76103;SDS011;64831;44.870;37.336;2023-04-24T22:49:18;5.25;;;2.35;;
76103;SDS011;64831;44.870;37.336;2023-04-24T22:51:46;1.52;;;1.10;;
76103;SDS011;64831;44.870;37.336;2023-04-24T22:54:12;7.30;;;2.88;;
76103;SDS011;64831;44.870;37.336;2023-04-24T22:56:38;5.82;;;1.65;;
76103;SDS011;64831;44.870;37.336;2023-04-24T22:59:04;8.35;;;2.97;;
76103;SDS011;64831;44.870;37.336;2023-04-24T23:01:30;3.47;;;2.03;;
76103;SDS011;64831;44.870;37.336;2023-04-24T23:03:56;8.30;;;2.97;;
76103;SDS011;64831;44.870;37.336;2023-04-24T23:06:22;2.38;;;2.00;;
76103;SDS011;64831;44.870;37.336;2023-04-24T23:08:49;5.78;;;2.20;;
76103;SDS011;64831;44.870;37.336;2023-04-24T23:11:15;5.47;;;3.33;;
76103;SDS011;64831;44.870;37.336;2023-04-24T23:13:41;4.60;;;2.08;;
76103;SDS011;64831;44.870;37.336;2023-04-24T23:16:09;6.47;;;3.28;;
76103;SDS011;64831;44.870;37.336;2023-04-24T23:18:35;12.10;;;3.75;;
76103;SDS011;64831;44.870;37.336;2023-04-24T23:21:01;4.20;;;2.90;;
76103;SDS011;64831;44.870;37.336;2023-04-24T23:23:27;4.63;;;3.00;;
76103;SDS011;64831;44.870;37.336;2023-04-24T23:25:54;6.47;;;3.15;;
76103;SDS011;64831;44.870;37.336;2023-04-24T23:28:19;5.40;;;3.53;;
76103;SDS011;64831;44.870;37.336;2023-04-24T23:30:45;2.67;;;1.95;;
76103;SDS011;64831;44.870;37.336;2023-04-24T23:33:11;8.20;;;3.20;;
76103;SDS011;64831;44.870;37.336;2023-04-24T23:35:38;7.57;;;3.78;;
76103;SDS011;64831;44.870;37.336;2023-04-24T23:38:04;7.60;;;2.60;;
76103;SDS011;64831;44.870;37.336;2023-04-24T23:40:30;5.63;;;2.97;;
76103;SDS011;64831;44.870;37.336;2023-04-24T23:42:56;9.00;;;3.28;;
76103;SDS011;64831;44.870;37.336;2023-04-24T23:45:22;7.13;;;3.88;;
76103;SDS011;64831;44.870;37.336;2023-04-24T23:47:48;5.10;;;2.67;;
76103;SDS011;64831;44.870;37.336;2023-04-24T23:50:15;2.33;;;1.65;;
76103;SDS011;64831;44.870;37.336;2023-04-24T23:52:41;3.67;;;2.47;;
76103;SDS011;64831;44.870;37.336;2023-04-24T23:55:10;4.80;;;2.47;;
76103;SDS011;64831;44.870;37.336;2023-04-24T23:57:36;8.85;;;2.72;;
